Terminal Aerodrome Forecast
Issued by NWS

Home | Current Version | Previous Version | Text Only | Print | Product List | Glossary On
Versions: 1 2 3 4 5 6 7 8 9 10 11 12 13 14 15 16 17
000
FTUS43 KTOP 130500
TAFFOE
TAF
KFOE 130520Z 1306/1406 26008KT P6SM BKN090
     FM130800 33008KT P6SM -SHRA VCTS SCT040CB BKN100
     FM131300 02009KT P6SM SCT020 BKN100=

USA.gov is the U.S. government's official web portal to all federal, state and local government web resources and services.